FDX1793 KLAX-KSFO
Flight info
| Callsign | FDX1793 |
|---|---|
| Flight time | N/A |
| Altitude | 22000 |
| Route | SUMMR2 STOKD SERFR SERFR4 |
| Aircraft | B738/M-SDE2E3FGHIRWXY/LB1 |
Departure
| Time | 2026-04-20 14:15 |
|---|---|
| Airport | Los Angeles International Airport (KLAX) |
Arrival
| Time | N/A |
|---|---|
| Airport | San Francisco International Airport (KSFO) |
| Time | Latitude | Longitude | Altitude | Speed | Heading |
|---|---|---|---|---|---|
| 2026-04-20 13:38 | 33.93333 | -118.38597 | 125 ft | 0 kts | 269° |
| 2026-04-20 14:01 | 33.93333 | -118.38593 | 125 ft | 3 kts | 270° |
| 2026-04-20 14:01 | 33.93333 | -118.38561 | 129 ft | 4 kts | 270° |
| 2026-04-20 14:01 | 33.93332 | -118.38532 | 121 ft | 4 kts | 289° |
| 2026-04-20 14:01 | 33.93317 | -118.38513 | 121 ft | 4 kts | 351° |
| 2026-04-20 14:02 | 33.93299 | -118.38512 | 123 ft | 1 kts | 0° |
| 2026-04-20 14:02 | 33.93296 | -118.38512 | 123 ft | 0 kts | 0° |
| 2026-04-20 14:07 | 33.93313 | -118.38512 | 121 ft | 6 kts | 0° |
| 2026-04-20 14:07 | 33.93362 | -118.38512 | 123 ft | 7 kts | 360° |
| 2026-04-20 14:08 | 33.93413 | -118.38512 | 122 ft | 7 kts | 360° |
| 2026-04-20 14:08 | 33.93463 | -118.38512 | 120 ft | 7 kts | 359° |
| 2026-04-20 14:08 | 33.93484 | -118.38514 | 123 ft | 0 kts | 352° |
| 2026-04-20 14:11 | 33.93498 | -118.38513 | 123 ft | 7 kts | 4° |
| 2026-04-20 14:11 | 33.93569 | -118.38501 | 122 ft | 11 kts | 22° |
| 2026-04-20 14:11 | 33.93599 | -118.38420 | 123 ft | 11 kts | 85° |
| 2026-04-20 14:11 | 33.93608 | -118.38326 | 123 ft | 11 kts | 76° |
| 2026-04-20 14:12 | 33.93667 | -118.38280 | 122 ft | 11 kts | 358° |
| 2026-04-20 14:12 | 33.93743 | -118.38291 | 123 ft | 11 kts | 352° |
| 2026-04-20 14:12 | 33.93816 | -118.38301 | 122 ft | 10 kts | 355° |
| 2026-04-20 14:12 | 33.93848 | -118.38306 | 123 ft | 0 kts | 352° |
| 2026-04-20 14:13 | 33.93867 | -118.38309 | 121 ft | 8 kts | 352° |
| 2026-04-20 14:14 | 33.93931 | -118.38321 | 122 ft | 9 kts | 338° |
| 2026-04-20 14:14 | 33.93948 | -118.38393 | 125 ft | 7 kts | 264° |
| 2026-04-20 14:14 | 33.93947 | -118.38395 | 125 ft | 0 kts | 263° |
| 2026-04-20 14:15 | 33.93916 | -118.38709 | 125 ft | 82 kts | 263° |
| 2026-04-20 14:15 | 33.93810 | -118.39733 | 120 ft | 160 kts | 263° |
| 2026-04-20 14:15 | 33.93653 | -118.41293 | 312 ft | 212 kts | 263° |
| 2026-04-20 14:15 | 33.93461 | -118.43118 | 1130 ft | 224 kts | 262° |
| 2026-04-20 14:16 | 33.93266 | -118.44961 | 2134 ft | 216 kts | 263° |
| 2026-04-20 14:16 | 33.93101 | -118.46727 | 2956 ft | 210 kts | 263° |
| 2026-04-20 14:16 | 33.92951 | -118.48538 | 3410 ft | 226 kts | 263° |
| 2026-04-20 14:16 | 33.92794 | -118.50468 | 3958 ft | 238 kts | 263° |
| 2026-04-20 14:17 | 33.92628 | -118.52505 | 4498 ft | 251 kts | 263° |
| 2026-04-20 14:17 | 33.92451 | -118.54659 | 4978 ft | 267 kts | 263° |
| 2026-04-20 14:17 | 33.92266 | -118.56910 | 4992 ft | 271 kts | 263° |
| 2026-04-20 14:17 | 33.92079 | -118.59167 | 5032 ft | 272 kts | 263° |
| 2026-04-20 14:18 | 33.91889 | -118.61453 | 5451 ft | 277 kts | 263° |
| 2026-04-20 14:18 | 33.91730 | -118.63747 | 6408 ft | 274 kts | 266° |
| 2026-04-20 14:18 | 33.91704 | -118.66041 | 7239 ft | 275 kts | 268° |
| 2026-04-20 14:18 | 33.91715 | -118.68325 | 7981 ft | 278 kts | 268° |
| 2026-04-20 14:19 | 33.91725 | -118.70669 | 8755 ft | 281 kts | 268° |
| 2026-04-20 14:19 | 33.91730 | -118.73030 | 9543 ft | 283 kts | 267° |
| 2026-04-20 14:19 | 33.91727 | -118.75415 | 10281 ft | 287 kts | 266° |
| 2026-04-20 14:19 | 33.91717 | -118.77905 | 10528 ft | 309 kts | 266° |
| 2026-04-20 14:20 | 33.91703 | -118.80589 | 10711 ft | 331 kts | 266° |
| 2026-04-20 14:20 | 33.91689 | -118.83437 | 11045 ft | 346 kts | 267° |
| 2026-04-20 14:20 | 33.91741 | -118.86332 | 11641 ft | 352 kts | 269° |
| 2026-04-20 14:20 | 33.91846 | -118.89287 | 12341 ft | 354 kts | 269° |
| 2026-04-20 14:21 | 33.91954 | -118.92265 | 13028 ft | 357 kts | 269° |
| 2026-04-20 14:21 | 33.92052 | -118.95269 | 13698 ft | 360 kts | 269° |
| 2026-04-20 14:21 | 33.92142 | -118.98303 | 14304 ft | 363 kts | 269° |
| 2026-04-20 14:21 | 33.92376 | -119.01352 | 14888 ft | 371 kts | 281° |
| 2026-04-20 14:22 | 33.93447 | -119.04210 | 15509 ft | 379 kts | 298° |
| 2026-04-20 14:22 | 33.94870 | -119.06845 | 16129 ft | 381 kts | 299° |
| 2026-04-20 14:22 | 33.96305 | -119.09556 | 16686 ft | 385 kts | 298° |
| 2026-04-20 14:22 | 33.97733 | -119.12299 | 17245 ft | 388 kts | 298° |
| 2026-04-20 14:23 | 33.99164 | -119.15071 | 17817 ft | 391 kts | 298° |
| 2026-04-20 14:23 | 34.00627 | -119.17858 | 18383 ft | 395 kts | 301° |
| 2026-04-20 14:23 | 34.02565 | -119.20209 | 18813 ft | 407 kts | 321° |
| 2026-04-20 14:23 | 34.04939 | -119.22089 | 19382 ft | 408 kts | 322° |
| 2026-04-20 14:24 | 34.07293 | -119.24028 | 19875 ft | 410 kts | 321° |
| 2026-04-20 14:24 | 34.09632 | -119.26018 | 20357 ft | 412 kts | 320° |
| 2026-04-20 14:24 | 34.11980 | -119.28042 | 20858 ft | 414 kts | 320° |
| 2026-04-20 14:24 | 34.14329 | -119.30075 | 21376 ft | 416 kts | 320° |
| 2026-04-20 14:25 | 34.16690 | -119.32119 | 21839 ft | 418 kts | 320° |
| 2026-04-20 14:25 | 34.19063 | -119.34171 | 21998 ft | 420 kts | 320° |
| 2026-04-20 14:25 | 34.21443 | -119.36227 | 22018 ft | 419 kts | 320° |
| 2026-04-20 14:25 | 34.23793 | -119.38256 | 22016 ft | 420 kts | 320° |
| 2026-04-20 14:26 | 34.26177 | -119.40315 | 22019 ft | 420 kts | 320° |
| 2026-04-20 14:26 | 34.28558 | -119.42373 | 22017 ft | 420 kts | 320° |
| 2026-04-20 14:26 | 34.30941 | -119.44435 | 22011 ft | 420 kts | 320° |
| 2026-04-20 14:26 | 34.33321 | -119.46495 | 22004 ft | 420 kts | 320° |
| 2026-04-20 14:27 | 34.35698 | -119.48554 | 22003 ft | 420 kts | 320° |
| 2026-04-20 14:27 | 34.38046 | -119.50589 | 22001 ft | 420 kts | 320° |
| 2026-04-20 14:27 | 34.40422 | -119.52651 | 22002 ft | 420 kts | 319° |
| 2026-04-20 14:27 | 34.42703 | -119.54852 | 21994 ft | 417 kts | 313° |
| 2026-04-20 14:28 | 34.44779 | -119.57290 | 22011 ft | 414 kts | 309° |
| 2026-04-20 14:28 | 34.46772 | -119.59821 | 22011 ft | 414 kts | 308° |
| 2026-04-20 14:28 | 34.48741 | -119.62369 | 22034 ft | 414 kts | 308° |
| 2026-04-20 14:28 | 34.50719 | -119.64912 | 22037 ft | 414 kts | 308° |
| 2026-04-20 14:29 | 34.52709 | -119.67436 | 22048 ft | 414 kts | 309° |
| 2026-04-20 14:29 | 34.54712 | -119.69954 | 22046 ft | 415 kts | 309° |
| 2026-04-20 14:29 | 34.56725 | -119.72463 | 22045 ft | 415 kts | 309° |
| 2026-04-20 14:29 | 34.58748 | -119.74970 | 22054 ft | 415 kts | 309° |
| 2026-04-20 14:30 | 34.60777 | -119.77477 | 22048 ft | 416 kts | 309° |
| 2026-04-20 14:30 | 34.62807 | -119.79983 | 22044 ft | 415 kts | 309° |
| 2026-04-20 14:30 | 34.64805 | -119.82451 | 22057 ft | 415 kts | 309° |
| 2026-04-20 14:30 | 34.66832 | -119.84958 | 22048 ft | 416 kts | 309° |
| 2026-04-20 14:31 | 34.68861 | -119.87470 | 22049 ft | 416 kts | 309° |
| 2026-04-20 14:31 | 34.70887 | -119.89980 | 22055 ft | 416 kts | 309° |
| 2026-04-20 14:31 | 34.72922 | -119.92505 | 22047 ft | 417 kts | 309° |
| 2026-04-20 14:31 | 34.74947 | -119.95025 | 22040 ft | 416 kts | 308° |
| 2026-04-20 14:32 | 34.76972 | -119.97548 | 22047 ft | 415 kts | 308° |
| 2026-04-20 14:32 | 34.78987 | -120.00060 | 22038 ft | 414 kts | 308° |
| 2026-04-20 14:32 | 34.81006 | -120.02566 | 22051 ft | 414 kts | 309° |
| 2026-04-20 14:32 | 34.83030 | -120.05062 | 22045 ft | 414 kts | 309° |
| 2026-04-20 14:33 | 34.85052 | -120.07574 | 22051 ft | 415 kts | 308° |
| 2026-04-20 14:33 | 34.87069 | -120.10090 | 22044 ft | 415 kts | 308° |
| 2026-04-20 14:33 | 34.89089 | -120.12615 | 22031 ft | 416 kts | 308° |
| 2026-04-20 14:33 | 34.91079 | -120.15103 | 22053 ft | 416 kts | 308° |
| 2026-04-20 14:34 | 34.93100 | -120.17631 | 22047 ft | 415 kts | 308° |
| 2026-04-20 14:34 | 34.95116 | -120.20157 | 22051 ft | 415 kts | 308° |
| 2026-04-20 14:34 | 34.97132 | -120.22691 | 22054 ft | 416 kts | 308° |
| 2026-04-20 14:34 | 34.99149 | -120.25219 | 22053 ft | 416 kts | 308° |
| 2026-04-20 14:35 | 35.01176 | -120.27757 | 22049 ft | 417 kts | 308° |
| 2026-04-20 14:35 | 35.03175 | -120.30262 | 22044 ft | 417 kts | 308° |
| 2026-04-20 14:35 | 35.05193 | -120.32796 | 22050 ft | 416 kts | 308° |
| 2026-04-20 14:35 | 35.07216 | -120.35339 | 22051 ft | 417 kts | 308° |
| 2026-04-20 14:36 | 35.09244 | -120.37876 | 22044 ft | 417 kts | 309° |
| 2026-04-20 14:36 | 35.11343 | -120.40330 | 22053 ft | 419 kts | 311° |
| 2026-04-20 14:36 | 35.13497 | -120.42731 | 22046 ft | 419 kts | 311° |
| 2026-04-20 14:36 | 35.15663 | -120.45119 | 22051 ft | 419 kts | 311° |
| 2026-04-20 14:37 | 35.17831 | -120.47510 | 22051 ft | 419 kts | 311° |
| 2026-04-20 14:37 | 35.19989 | -120.49904 | 22044 ft | 419 kts | 311° |
| 2026-04-20 14:37 | 35.22142 | -120.52306 | 22053 ft | 418 kts | 310° |
| 2026-04-20 14:37 | 35.24287 | -120.54710 | 22043 ft | 419 kts | 310° |
| 2026-04-20 14:38 | 35.26432 | -120.57120 | 22053 ft | 419 kts | 310° |
| 2026-04-20 14:38 | 35.28584 | -120.59541 | 22053 ft | 420 kts | 310° |
| 2026-04-20 14:38 | 35.30746 | -120.61964 | 22045 ft | 422 kts | 311° |
| 2026-04-20 14:38 | 35.32914 | -120.64391 | 22038 ft | 422 kts | 311° |
| 2026-04-20 14:39 | 35.35073 | -120.66823 | 22039 ft | 421 kts | 310° |
| 2026-04-20 14:39 | 35.37199 | -120.69224 | 22044 ft | 421 kts | 310° |
| 2026-04-20 14:39 | 35.39352 | -120.71661 | 22050 ft | 421 kts | 310° |
| 2026-04-20 14:39 | 35.41505 | -120.74099 | 22044 ft | 421 kts | 310° |
| 2026-04-20 14:40 | 35.42638 | -120.75383 | 22035 ft | 421 kts | 311° |